Terminal Aerodrome Forecast
Issued by NWS

Home | Current Version | Previous Version | Graphics & Text | Print | Product List | Glossary On
Versions: 1 2 3 4 5 6 7 8 9 10 11 12 13 14 15 16 17 18 19 20
000
FTUS43 KTOP 191720
TAFFOE
TAF
KFOE 191720Z 1918/2018 12005KT P6SM VCTS BKN015CB
      TEMPO 1919/1923 4SM TSRA BR OVC005CB
     FM192300 09007KT 4SM SHRA BR VCTS OVC012CB
     FM200300 10008KT 5SM SHRA BR OVC006
     FM201200 25008KT P6SM BKN012=

USA.gov is the U.S. government's official web portal to all federal, state and local government web resources and services.